Time;durP1;ratioP1;P1;durP2;ratioP2;P2;SDS_P1;SDS_P2;PMS_P1;PMS_P2;Temp;Humidity;BMP_temperature;BMP_pressure;BME280_temperature;BME280_humidity;BME280_pressure;Samples;Min_cycle;Max_cycle;Signal;HPM_P1;HPM_P2
2021/11/04 00:00:57;;;;;;;185.95;51.72;;;;;;;;;;4980132;28;20032;-90
2021/11/04 00:03:22;;;;;;;179.73;49.22;;;;;;;;;;4980324;28;20479;-88
2021/11/04 00:05:48;;;;;;;159.98;47.05;;;;;;;;;;4986556;28;20037;-90
2021/11/04 00:08:13;;;;;;;174.65;48.97;;;;;;;;;;4999333;28;20085;-89
2021/11/04 00:10:38;;;;;;;161.20;48.58;;;;;;;;;;5001469;28;20034;-88
2021/11/04 00:13:04;;;;;;;168.43;49.40;;;;;;;;;;5001628;28;20092;-90
2021/11/04 00:15:29;;;;;;;178.07;50.15;;;;;;;;;;4999436;28;20046;-90
2021/11/04 00:17:58;;;;;;;189.73;49.03;;;;;;;;;;5000346;28;20026;-90
2021/11/04 00:20:23;;;;;;;188.50;49.38;;;;;;;;;;4997016;28;20113;-89
2021/11/04 00:22:49;;;;;;;173.32;49.70;;;;;;;;;;4981448;28;20023;-90
2021/11/04 00:25:15;;;;;;;175.07;48.63;;;;;;;;;;4991932;28;20034;-90
2021/11/04 00:27:40;;;;;;;167.98;48.30;;;;;;;;;;5003556;28;20030;-90
2021/11/04 00:30:07;;;;;;;195.43;51.95;;;;;;;;;;5000012;28;20030;-90
2021/11/04 00:32:33;;;;;;;184.65;49.47;;;;;;;;;;5000320;28;20497;-90
2021/11/04 00:34:58;;;;;;;183.95;50.20;;;;;;;;;;4986013;28;20035;-89
2021/11/04 00:37:24;;;;;;;176.07;48.25;;;;;;;;;;4980504;28;20010;-89
2021/11/04 00:39:49;;;;;;;163.40;47.20;;;;;;;;;;4979332;28;20050;-90
2021/11/04 00:42:15;;;;;;;158.75;45.65;;;;;;;;;;4987095;28;20033;-90
2021/11/04 00:44:40;;;;;;;169.77;46.58;;;;;;;;;;4979351;28;20030;-90
2021/11/04 00:47:06;;;;;;;184.25;50.47;;;;;;;;;;4979623;28;20065;-90
2021/11/04 00:49:31;;;;;;;175.82;48.75;;;;;;;;;;4983720;28;20026;-90
2021/11/04 00:51:57;;;;;;;189.88;51.08;;;;;;;;;;4999595;28;20064;-90
2021/11/04 00:54:23;;;;;;;201.90;53.05;;;;;;;;;;4999852;28;20030;-90
2021/11/04 00:56:48;;;;;;;193.15;49.28;;;;;;;;;;4997807;28;20030;-90
2021/11/04 00:59:14;;;;;;;184.20;52.85;;;;;;;;;;4999671;28;20037;-90
2021/11/04 01:01:39;;;;;;;193.73;51.08;;;;;;;;;;4997772;28;20034;-90
2021/11/04 01:04:05;;;;;;;189.00;50.90;;;;;;;;;;4994625;28;20061;-90
2021/11/04 01:06:30;;;;;;;188.77;50.88;;;;;;;;;;4995726;28;20038;-90
2021/11/04 01:08:56;;;;;;;174.95;49.97;;;;;;;;;;5002445;28;20030;-90
2021/11/04 01:11:22;;;;;;;177.70;48.08;;;;;;;;;;4998570;28;20109;-90
2021/11/04 01:13:48;;;;;;;163.48;45.85;;;;;;;;;;4978220;28;20027;-90
2021/11/04 01:16:13;;;;;;;173.48;48.10;;;;;;;;;;4978825;28;20086;-90
2021/11/04 01:18:39;;;;;;;161.27;46.25;;;;;;;;;;4980045;28;20054;-90
2021/11/04 01:21:04;;;;;;;173.88;46.80;;;;;;;;;;4991073;28;20455;-89
2021/11/04 01:23:30;;;;;;;158.00;44.83;;;;;;;;;;4979301;28;20034;-90
2021/11/04 01:25:55;;;;;;;164.45;43.42;;;;;;;;;;4986875;28;20030;-90
2021/11/04 01:28:21;;;;;;;173.25;47.50;;;;;;;;;;4979352;28;20061;-90
2021/11/04 01:30:47;;;;;;;159.75;47.35;;;;;;;;;;4979593;28;20053;-90
2021/11/04 01:33:13;;;;;;;174.38;46.22;;;;;;;;;;4986436;28;20041;-90
2021/11/04 01:35:38;;;;;;;165.95;50.40;;;;;;;;;;4978036;28;20023;-90
2021/11/04 01:38:06;;;;;;;184.00;48.55;;;;;;;;;;4980919;28;20034;-90
2021/11/04 01:40:33;;;;;;;181.57;47.17;;;;;;;;;;4985814;28;20460;-90
2021/11/04 01:42:59;;;;;;;179.23;47.80;;;;;;;;;;4999553;28;20101;-90
2021/11/04 01:45:25;;;;;;;176.20;49.80;;;;;;;;;;4997609;28;20401;-90
2021/11/04 01:47:51;;;;;;;163.35;46.38;;;;;;;;;;4997749;28;20050;-90
2021/11/04 01:50:18;;;;;;;176.27;46.67;;;;;;;;;;4997483;28;20033;-89
2021/11/04 01:52:44;;;;;;;165.88;45.20;;;;;;;;;;4996979;28;20113;-88
2021/11/04 01:55:25;;;;;;;170.80;48.25;;;;;;;;;;4986570;28;20069;-90
2021/11/04 01:57:51;;;;;;;192.48;45.92;;;;;;;;;;4986109;28;20053;-90
2021/11/04 02:00:20;;;;;;;190.75;48.78;;;;;;;;;;5011651;28;20021;-89
2021/11/04 02:02:52;;;;;;;200.13;50.92;;;;;;;;;;5019153;28;20026;-89
2021/11/04 02:05:21;;;;;;;211.07;51.15;;;;;;;;;;5012244;28;20082;-90
2021/11/04 02:07:58;;;;;;;202.43;48.88;;;;;;;;;;5000668;28;20031;-90
2021/11/04 02:10:59;;;;;;;194.65;48.92;;;;;;;;;;4998229;28;20030;-89
2021/11/04 02:13:29;;;;;;;200.55;48.15;;;;;;;;;;4981706;28;20031;-87
2021/11/04 02:15:59;;;;;;;197.35;47.83;;;;;;;;;;4980251;28;20497;-89
2021/11/04 02:18:28;;;;;;;192.18;49.80;;;;;;;;;;4979524;28;20114;-90
2021/11/04 02:21:09;;;;;;;194.55;46.17;;;;;;;;;;4979597;28;20031;-88
2021/11/04 02:23:41;;;;;;;193.85;47.50;;;;;;;;;;4984045;28;20110;-88
2021/11/04 02:26:08;;;;;;;198.85;48.72;;;;;;;;;;4999722;28;20101;-90
2021/11/04 02:28:36;;;;;;;188.25;45.53;;;;;;;;;;5002513;28;20026;-90
2021/11/04 02:31:03;;;;;;;195.73;49.00;;;;;;;;;;5003850;28;20393;-89
2021/11/04 02:33:29;;;;;;;202.60;48.92;;;;;;;;;;5001703;28;20120;-90
2021/11/04 02:35:56;;;;;;;188.05;43.78;;;;;;;;;;5000121;28;20042;-89
2021/11/04 02:38:26;;;;;;;202.23;47.78;;;;;;;;;;5000560;28;20030;-89
2021/11/04 02:40:53;;;;;;;200.82;44.90;;;;;;;;;;5001935;28;20165;-90
2021/11/04 02:43:19;;;;;;;197.35;48.10;;;;;;;;;;5003482;28;20033;-89
2021/11/04 02:45:45;;;;;;;211.13;49.55;;;;;;;;;;4982933;28;20027;-90
2021/11/04 02:48:11;;;;;;;182.35;45.53;;;;;;;;;;4982472;28;20039;-88
2021/11/04 02:50:38;;;;;;;181.48;45.45;;;;;;;;;;4982700;28;20019;-90
2021/11/04 02:53:03;;;;;;;175.68;42.47;;;;;;;;;;4998183;28;20023;-91
2021/11/04 02:55:34;;;;;;;185.18;44.85;;;;;;;;;;4982864;28;20089;-90
2021/11/04 02:58:03;;;;;;;175.10;46.35;;;;;;;;;;4995983;28;20034;-89
2021/11/04 03:00:29;;;;;;;181.80;44.97;;;;;;;;;;4989645;28;20110;-89
2021/11/04 03:02:54;;;;;;;165.40;41.63;;;;;;;;;;4981060;28;20046;-90
2021/11/04 03:05:20;;;;;;;183.00;45.28;;;;;;;;;;4980965;28;20024;-89
2021/11/04 03:07:45;;;;;;;177.75;42.22;;;;;;;;;;4982200;28;20045;-89
2021/11/04 03:10:11;;;;;;;187.15;45.25;;;;;;;;;;4992957;28;20034;-89
2021/11/04 03:12:36;;;;;;;191.82;44.00;;;;;;;;;;4981109;28;20027;-89
2021/11/04 03:15:02;;;;;;;189.82;45.58;;;;;;;;;;4996923;28;20027;-89
2021/11/04 03:17:28;;;;;;;190.15;45.72;;;;;;;;;;4980439;28;20027;-89
2021/11/04 03:19:54;;;;;;;183.13;42.45;;;;;;;;;;4982371;28;20031;-89
2021/11/04 03:22:20;;;;;;;188.32;43.75;;;;;;;;;;4982044;28;20133;-90
2021/11/04 03:24:45;;;;;;;170.20;42.70;;;;;;;;;;4996281;28;20030;-89
2021/11/04 03:27:12;;;;;;;188.38;43.55;;;;;;;;;;5000990;28;20019;-90
2021/11/04 03:29:40;;;;;;;183.95;44.42;;;;;;;;;;5001000;28;20026;-90
2021/11/04 03:32:11;;;;;;;181.68;44.40;;;;;;;;;;5000421;28;20065;-90
2021/11/04 03:34:39;;;;;;;190.90;43.50;;;;;;;;;;4999243;28;20037;-90
2021/11/04 03:37:06;;;;;;;178.35;41.05;;;;;;;;;;4998944;28;20029;-90
2021/11/04 03:39:31;;;;;;;184.93;42.05;;;;;;;;;;5000235;28;20117;-90
2021/11/04 03:41:58;;;;;;;192.15;44.63;;;;;;;;;;4994037;28;20065;-89
2021/11/04 03:44:25;;;;;;;173.82;42.60;;;;;;;;;;5000957;28;20023;-90
2021/11/04 03:46:52;;;;;;;179.02;42.75;;;;;;;;;;5001233;28;20022;-90
2021/11/04 03:49:19;;;;;;;177.90;41.83;;;;;;;;;;5000604;28;20139;-90
2021/11/04 03:51:48;;;;;;;181.82;41.80;;;;;;;;;;5000780;28;20042;-90
2021/11/04 03:54:14;;;;;;;195.30;44.17;;;;;;;;;;4999675;28;20022;-90
2021/11/04 03:56:40;;;;;;;180.85;42.17;;;;;;;;;;4986667;28;20034;-89
2021/11/04 03:59:05;;;;;;;191.88;43.45;;;;;;;;;;4981131;28;20026;-90
2021/11/04 04:01:33;;;;;;;202.48;45.10;;;;;;;;;;4982412;28;20018;-90
2021/11/04 04:03:58;;;;;;;192.88;41.70;;;;;;;;;;4980136;28;20015;-90
2021/11/04 04:06:24;;;;;;;174.95;41.17;;;;;;;;;;4998791;28;20448;-90
2021/11/04 04:08:52;;;;;;;208.60;44.08;;;;;;;;;;4999241;28;20130;-90
2021/11/04 04:11:17;;;;;;;211.48;44.40;;;;;;;;;;4999968;28;20105;-90
2021/11/04 04:13:43;;;;;;;207.98;45.78;;;;;;;;;;4992481;28;20042;-90
2021/11/04 04:16:08;;;;;;;203.63;45.65;;;;;;;;;;4979541;28;20073;-90
2021/11/04 04:18:34;;;;;;;200.55;44.13;;;;;;;;;;4980055;28;20034;-90
2021/11/04 04:21:00;;;;;;;220.93;48.40;;;;;;;;;;4996864;28;20394;-89
2021/11/04 04:23:25;;;;;;;211.52;44.75;;;;;;;;;;5001619;28;20026;-89
2021/11/04 04:25:50;;;;;;;210.77;44.45;;;;;;;;;;5019202;28;20137;-90
2021/11/04 04:28:17;;;;;;;198.23;44.08;;;;;;;;;;5022081;28;20102;-89
2021/11/04 04:30:42;;;;;;;172.52;41.80;;;;;;;;;;5021670;28;20054;-90
2021/11/04 04:33:08;;;;;;;178.45;45.22;;;;;;;;;;5025913;28;20018;-86
2021/11/04 04:35:33;;;;;;;184.20;43.63;;;;;;;;;;5039071;28;20070;-88
2021/11/04 04:37:58;;;;;;;177.40;44.50;;;;;;;;;;5038466;28;20041;-90
2021/11/04 04:40:24;;;;;;;176.93;41.20;;;;;;;;;;4998965;28;20031;-89
2021/11/04 04:42:49;;;;;;;159.27;39.95;;;;;;;;;;4979503;28;20033;-89
2021/11/04 04:45:18;;;;;;;165.80;39.58;;;;;;;;;;4979479;28;20030;-91
2021/11/04 04:47:44;;;;;;;173.75;41.53;;;;;;;;;;4979358;28;20037;-90
2021/11/04 04:50:10;;;;;;;169.32;43.00;;;;;;;;;;4980072;28;20034;-90
2021/11/04 04:52:36;;;;;;;174.98;42.00;;;;;;;;;;4985880;28;20273;-90
2021/11/04 04:55:04;;;;;;;162.68;41.58;;;;;;;;;;4982120;28;20030;-89
2021/11/04 04:57:30;;;;;;;157.48;39.67;;;;;;;;;;4985867;28;20472;-90
2021/11/04 04:59:57;;;;;;;160.00;39.38;;;;;;;;;;4980215;28;20066;-89
2021/11/04 05:02:24;;;;;;;157.57;39.55;;;;;;;;;;4978411;28;20009;-90
2021/11/04 05:04:50;;;;;;;156.63;38.90;;;;;;;;;;4980133;28;20474;-90
2021/11/04 05:07:16;;;;;;;147.70;38.70;;;;;;;;;;4980498;28;20094;-89
2021/11/04 05:09:42;;;;;;;147.70;38.30;;;;;;;;;;4979388;28;20027;-90
2021/11/04 05:12:08;;;;;;;149.13;40.20;;;;;;;;;;4978355;28;20018;-89
2021/11/04 05:14:34;;;;;;;156.23;40.63;;;;;;;;;;4986706;28;20030;-90
2021/11/04 05:16:59;;;;;;;149.00;41.42;;;;;;;;;;4980046;28;20030;-90
2021/11/04 05:19:25;;;;;;;151.15;40.08;;;;;;;;;;4994943;28;20081;-90
2021/11/04 05:21:50;;;;;;;150.50;39.80;;;;;;;;;;4997598;28;20033;-91
2021/11/04 05:24:16;;;;;;;150.18;39.67;;;;;;;;;;5001870;28;20030;-90
2021/11/04 05:26:41;;;;;;;141.45;37.65;;;;;;;;;;4998629;28;20026;-89
2021/11/04 05:29:07;;;;;;;146.88;38.10;;;;;;;;;;4999613;28;20034;-90
2021/11/04 05:31:32;;;;;;;147.70;40.28;;;;;;;;;;5003946;28;20026;-90
2021/11/04 05:33:58;;;;;;;144.50;39.13;;;;;;;;;;4998556;28;20057;-90
2021/11/04 05:36:24;;;;;;;143.27;37.83;;;;;;;;;;5001229;28;20030;-89
2021/11/04 05:38:50;;;;;;;159.05;41.45;;;;;;;;;;4998219;28;20057;-89
2021/11/04 05:41:16;;;;;;;177.00;39.38;;;;;;;;;;4993767;28;20041;-90
2021/11/04 05:43:41;;;;;;;162.55;40.47;;;;;;;;;;4978620;28;20023;-90
2021/11/04 05:46:07;;;;;;;151.35;39.08;;;;;;;;;;4977184;28;20031;-90
2021/11/04 05:48:32;;;;;;;150.45;39.80;;;;;;;;;;4979563;28;20033;-90
2021/11/04 05:50:58;;;;;;;148.48;39.05;;;;;;;;;;4977406;28;20081;-90
2021/11/04 05:53:23;;;;;;;135.25;37.85;;;;;;;;;;4978974;28;20090;-90
2021/11/04 05:55:50;;;;;;;150.80;37.65;;;;;;;;;;4985556;28;20033;-90
2021/11/04 05:58:16;;;;;;;149.25;39.60;;;;;;;;;;4980370;28;20023;-90
2021/11/04 06:00:42;;;;;;;140.57;38.47;;;;;;;;;;4980405;28;20030;-89
2021/11/04 06:03:07;;;;;;;141.05;37.95;;;;;;;;;;4980944;28;20022;-89
2021/11/04 06:05:33;;;;;;;144.30;36.75;;;;;;;;;;4984458;28;20061;-89
2021/11/04 06:07:59;;;;;;;141.93;36.15;;;;;;;;;;4999223;28;20067;-89
2021/11/04 06:10:28;;;;;;;154.80;38.88;;;;;;;;;;4997757;28;20342;-89
2021/11/04 06:12:53;;;;;;;134.70;36.95;;;;;;;;;;5004991;28;20026;-88
2021/11/04 06:15:19;;;;;;;140.73;37.15;;;;;;;;;;5009392;28;20037;-89
2021/11/04 06:17:44;;;;;;;142.20;38.45;;;;;;;;;;4994243;28;20058;-89
2021/11/04 06:20:10;;;;;;;126.93;35.88;;;;;;;;;;4979254;28;20027;-90
2021/11/04 06:22:35;;;;;;;135.32;36.47;;;;;;;;;;4988220;28;20102;-91
2021/11/04 06:25:03;;;;;;;132.27;37.13;;;;;;;;;;4980426;28;20022;-91
2021/11/04 06:27:28;;;;;;;128.60;34.95;;;;;;;;;;4978705;28;20090;-90
2021/11/04 06:29:54;;;;;;;128.15;34.95;;;;;;;;;;4977634;28;20070;-91
2021/11/04 06:32:21;;;;;;;128.80;35.70;;;;;;;;;;4978151;28;20065;-90
2021/11/04 06:34:46;;;;;;;140.00;36.67;;;;;;;;;;4989259;28;20034;-90
2021/11/04 06:37:11;;;;;;;131.88;35.22;;;;;;;;;;5002308;28;20093;-89
2021/11/04 06:39:37;;;;;;;131.45;34.88;;;;;;;;;;4996618;28;20068;-89
2021/11/04 06:42:03;;;;;;;112.95;33.53;;;;;;;;;;4997832;28;20038;-89
2021/11/04 06:44:28;;;;;;;128.30;33.90;;;;;;;;;;5000402;28;20120;-88
2021/11/04 06:47:00;;;;;;;132.10;35.38;;;;;;;;;;4999546;28;20054;-89
2021/11/04 06:49:28;;;;;;;128.70;33.13;;;;;;;;;;4999294;28;20053;-90
2021/11/04 06:51:56;;;;;;;134.70;34.20;;;;;;;;;;4986693;28;20026;-90
2021/11/04 06:54:24;;;;;;;137.00;34.85;;;;;;;;;;4995389;28;20023;-90
2021/11/04 06:56:51;;;;;;;133.88;34.05;;;;;;;;;;4995287;28;20038;-90
2021/11/04 06:59:25;;;;;;;128.75;32.50;;;;;;;;;;4992784;28;20122;-90
2021/11/04 07:01:54;;;;;;;130.13;34.08;;;;;;;;;;4978530;28;20026;-90
2021/11/04 07:04:36;;;;;;;126.55;33.13;;;;;;;;;;4994091;28;20019;-90
2021/11/04 07:07:11;;;;;;;123.63;33.15;;;;;;;;;;4988138;28;20015;-89
2021/11/04 07:09:39;;;;;;;133.55;33.45;;;;;;;;;;5016997;28;20022;-90
2021/11/04 07:12:08;;;;;;;129.75;33.33;;;;;;;;;;4996265;28;20149;-89
2021/11/04 07:14:34;;;;;;;111.78;33.03;;;;;;;;;;4980546;28;20453;-90
2021/11/04 07:17:04;;;;;;;121.80;32.30;;;;;;;;;;4980664;28;20023;-90
2021/11/04 07:19:30;;;;;;;136.25;32.22;;;;;;;;;;4996331;28;20037;-90
2021/11/04 07:22:07;;;;;;;107.32;30.63;;;;;;;;;;4981854;28;20019;-90
2021/11/04 07:24:43;;;;;;;115.07;30.85;;;;;;;;;;4983698;28;20054;-90
2021/11/04 07:27:17;;;;;;;102.53;28.77;;;;;;;;;;4997853;28;20026;-90
2021/11/04 07:29:48;;;;;;;110.43;30.80;;;;;;;;;;4991839;28;20026;-90
2021/11/04 07:32:16;;;;;;;111.03;28.85;;;;;;;;;;4989732;28;20026;-89
2021/11/04 07:34:43;;;;;;;103.55;29.48;;;;;;;;;;4983596;28;20042;-90
2021/11/04 07:37:11;;;;;;;102.00;29.67;;;;;;;;;;4982099;28;20011;-90
2021/11/04 07:39:39;;;;;;;97.32;29.13;;;;;;;;;;4981566;28;20030;-90
2021/11/04 07:42:07;;;;;;;119.25;29.35;;;;;;;;;;4979390;28;20026;-90
2021/11/04 07:44:33;;;;;;;100.13;28.73;;;;;;;;;;4979109;28;20059;-90
2021/11/04 07:46:58;;;;;;;94.13;26.52;;;;;;;;;;4988558;28;20049;-90
2021/11/04 07:49:24;;;;;;;94.03;28.40;;;;;;;;;;4978897;28;20033;-90
2021/11/04 07:51:50;;;;;;;78.75;25.17;;;;;;;;;;4980825;28;20165;-90
2021/11/04 07:54:16;;;;;;;101.78;27.48;;;;;;;;;;4978908;28;20034;-90
2021/11/04 07:56:41;;;;;;;88.53;25.48;;;;;;;;;;4978696;28;20030;-90
2021/11/04 07:59:06;;;;;;;90.47;24.55;;;;;;;;;;4997688;28;20034;-90
2021/11/04 08:01:32;;;;;;;95.88;26.90;;;;;;;;;;4999585;28;20042;-90
2021/11/04 08:03:57;;;;;;;93.35;27.35;;;;;;;;;;4997975;28;20019;-90
2021/11/04 08:06:23;;;;;;;77.63;26.27;;;;;;;;;;4997946;28;20018;-90
2021/11/04 08:08:48;;;;;;;86.53;25.95;;;;;;;;;;4999030;28;20033;-90
2021/11/04 08:11:13;;;;;;;74.75;24.98;;;;;;;;;;5000032;28;20025;-90
2021/11/04 08:13:39;;;;;;;79.95;25.42;;;;;;;;;;4988483;28;20029;-90
2021/11/04 08:16:04;;;;;;;76.78;26.05;;;;;;;;;;4977969;28;20038;-90
2021/11/04 08:18:30;;;;;;;76.90;26.02;;;;;;;;;;4977542;28;20089;-90
2021/11/04 08:20:55;;;;;;;71.03;24.58;;;;;;;;;;4977878;28;20037;-90
2021/11/04 08:23:20;;;;;;;71.30;25.45;;;;;;;;;;4978506;28;20106;-90
2021/11/04 08:25:46;;;;;;;70.88;23.95;;;;;;;;;;4979870;28;20035;-90
2021/11/04 08:28:12;;;;;;;77.10;24.48;;;;;;;;;;4981114;28;20037;-90
2021/11/04 08:30:37;;;;;;;71.97;24.17;;;;;;;;;;4978694;28;20483;-90
2021/11/04 08:33:05;;;;;;;62.10;23.30;;;;;;;;;;4977827;28;20034;-88
2021/11/04 08:35:30;;;;;;;64.45;24.60;;;;;;;;;;4996182;28;20038;-90
2021/11/04 08:37:56;;;;;;;69.60;24.27;;;;;;;;;;4996779;28;20040;-91
2021/11/04 08:40:22;;;;;;;64.85;24.10;;;;;;;;;;4997276;28;20168;-90
2021/11/04 08:42:48;;;;;;;65.07;23.98;;;;;;;;;;5002832;28;20025;-90
2021/11/04 08:45:13;;;;;;;64.30;23.30;;;;;;;;;;4996910;28;20031;-90
2021/11/04 08:47:39;;;;;;;69.72;24.42;;;;;;;;;;4997136;28;20480;-90
2021/11/04 08:50:07;;;;;;;62.33;24.58;;;;;;;;;;4998110;28;20034;-90
2021/11/04 08:52:33;;;;;;;68.00;24.98;;;;;;;;;;4984238;28;20565;-90
2021/11/04 08:54:59;;;;;;;64.15;23.10;;;;;;;;;;4998986;28;20073;-90
2021/11/04 08:57:25;;;;;;;63.38;23.17;;;;;;;;;;4998352;28;20027;-91
2021/11/04 08:59:51;;;;;;;61.42;24.63;;;;;;;;;;5000069;28;20010;-90
2021/11/04 09:02:19;;;;;;;70.65;25.63;;;;;;;;;;4997247;28;20080;-91
2021/11/04 09:04:45;;;;;;;58.78;24.42;;;;;;;;;;4998480;28;20563;-90
2021/11/04 09:07:15;;;;;;;66.90;26.80;;;;;;;;;;4997774;28;20105;-90
2021/11/04 09:09:41;;;;;;;69.80;26.63;;;;;;;;;;4997750;28;20022;-90
2021/11/04 09:12:07;;;;;;;69.53;27.27;;;;;;;;;;4996285;28;20049;-90
2021/11/04 09:14:34;;;;;;;74.22;25.92;;;;;;;;;;4997569;28;20026;-91
2021/11/04 09:17:00;;;;;;;62.08;24.98;;;;;;;;;;4992951;28;20062;-90
2021/11/04 09:19:25;;;;;;;66.13;24.88;;;;;;;;;;4978283;28;20027;-90
2021/11/04 09:21:50;;;;;;;67.65;26.98;;;;;;;;;;4979007;28;20026;-90
2021/11/04 09:24:17;;;;;;;61.65;25.10;;;;;;;;;;4985021;28;20037;-90
2021/11/04 09:26:42;;;;;;;65.57;24.23;;;;;;;;;;4998119;28;20027;-90
2021/11/04 09:29:07;;;;;;;62.80;23.27;;;;;;;;;;5000307;28;20168;-90
2021/11/04 09:31:34;;;;;;;59.17;24.15;;;;;;;;;;4997055;28;20034;-90
2021/11/04 09:33:59;;;;;;;58.00;23.02;;;;;;;;;;4996469;28;20033;-90
2021/11/04 09:36:29;;;;;;;60.60;23.70;;;;;;;;;;4997762;28;20038;-91
2021/11/04 09:38:58;;;;;;;62.58;23.92;;;;;;;;;;4997197;28;20014;-89
2021/11/04 09:41:24;;;;;;;58.78;24.20;;;;;;;;;;5008811;28;20020;-90
2021/11/04 09:43:50;;;;;;;51.75;22.27;;;;;;;;;;5017634;28;20026;-90
2021/11/04 09:46:16;;;;;;;54.05;21.55;;;;;;;;;;5012737;28;20076;-90
2021/11/04 09:48:41;;;;;;;53.35;22.75;;;;;;;;;;4997156;28;20018;-90
2021/11/04 09:51:08;;;;;;;53.83;23.10;;;;;;;;;;4998008;28;20490;-90
2021/11/04 09:53:33;;;;;;;55.30;22.92;;;;;;;;;;4976924;28;20059;-90
2021/11/04 09:56:00;;;;;;;49.22;21.25;;;;;;;;;;4977050;28;20038;-90
2021/11/04 09:58:26;;;;;;;50.13;22.63;;;;;;;;;;4977214;28;20018;-90
2021/11/04 10:00:53;;;;;;;59.33;23.02;;;;;;;;;;4977198;28;20023;-90
2021/11/04 10:03:18;;;;;;;50.97;22.40;;;;;;;;;;4977273;28;20496;-91
2021/11/04 10:05:52;;;;;;;53.22;22.90;;;;;;;;;;4976768;28;20062;-90
2021/11/04 10:08:40;;;;;;;54.63;21.58;;;;;;;;;;4977424;28;20027;-91
2021/11/04 10:11:13;;;;;;;50.60;21.95;;;;;;;;;;4983873;28;20023;-90
2021/11/04 10:13:43;;;;;;;48.72;21.80;;;;;;;;;;4979927;28;20022;-90
2021/11/04 10:16:13;;;;;;;50.85;21.17;;;;;;;;;;4991458;28;20046;-90
2021/11/04 10:18:48;;;;;;;47.58;21.42;;;;;;;;;;4984558;28;20026;-90
2021/11/04 10:21:22;;;;;;;47.75;21.10;;;;;;;;;;4978237;28;20510;-91
2021/11/04 10:23:48;;;;;;;66.72;22.25;;;;;;;;;;4977946;28;20027;-91
2021/11/04 10:26:16;;;;;;;48.60;22.05;;;;;;;;;;4978834;28;20490;-90
2021/11/04 10:28:44;;;;;;;47.00;20.95;;;;;;;;;;4981141;28;20409;-91
2021/11/04 10:31:12;;;;;;;47.15;20.75;;;;;;;;;;4977564;28;20019;-91
2021/11/04 10:33:39;;;;;;;53.38;21.42;;;;;;;;;;4978032;28;20033;-90
2021/11/04 10:36:15;;;;;;;43.97;19.90;;;;;;;;;;4979014;28;20031;-91
2021/11/04 10:38:45;;;;;;;44.47;20.83;;;;;;;;;;4996898;28;20031;-91
2021/11/04 10:41:18;;;;;;;43.78;20.45;;;;;;;;;;4997445;28;20030;-91
2021/11/04 10:43:44;;;;;;;48.85;19.35;;;;;;;;;;5001139;28;20029;-91
2021/11/04 10:46:12;;;;;;;48.63;20.65;;;;;;;;;;5010472;28;20046;-91
2021/11/04 10:48:42;;;;;;;48.13;20.40;;;;;;;;;;5002602;28;20034;-90
2021/11/04 10:51:13;;;;;;;43.95;20.70;;;;;;;;;;5001942;28;20034;-91
2021/11/04 10:53:38;;;;;;;37.15;18.38;;;;;;;;;;5001349;28;20442;-90
2021/11/04 10:56:20;;;;;;;41.40;20.27;;;;;;;;;;4998436;28;20038;-91
2021/11/04 10:58:54;;;;;;;44.20;21.02;;;;;;;;;;5001103;28;20173;-90
2021/11/04 11:01:28;;;;;;;42.08;20.50;;;;;;;;;;5000362;28;20098;-91
2021/11/04 11:03:58;;;;;;;42.70;19.75;;;;;;;;;;4987093;28;20026;-91
2021/11/04 11:06:25;;;;;;;40.90;19.70;;;;;;;;;;4981475;28;20379;-92
2021/11/04 11:08:50;;;;;;;43.65;20.33;;;;;;;;;;4983551;28;20027;-91
2021/11/04 11:11:20;;;;;;;38.15;19.75;;;;;;;;;;4982391;28;20034;-90
2021/11/04 11:13:47;;;;;;;44.65;19.40;;;;;;;;;;4980787;28;20023;-91
2021/11/04 11:16:14;;;;;;;31.40;18.20;;;;;;;;;;4981417;28;20038;-91
2021/11/04 11:18:40;;;;;;;64.20;20.85;;;;;;;;;;4987191;28;20057;-89
2021/11/04 11:21:05;;;;;;;38.75;16.83;;;;;;;;;;5002474;28;20026;-91
2021/11/04 11:23:31;;;;;;;30.10;16.48;;;;;;;;;;5001288;28;20022;-91
2021/11/04 11:26:02;;;;;;;30.80;16.85;;;;;;;;;;5002022;28;20022;-91
2021/11/04 11:28:30;;;;;;;31.17;16.17;;;;;;;;;;5001918;28;20022;-91
2021/11/04 11:31:08;;;;;;;34.70;17.40;;;;;;;;;;4999314;28;20329;-91
2021/11/04 11:33:34;;;;;;;30.67;16.13;;;;;;;;;;4981493;28;20422;-91
2021/11/04 11:36:12;;;;;;;45.83;18.10;;;;;;;;;;4982624;28;20038;-91
2021/11/04 11:38:57;;;;;;;33.85;17.25;;;;;;;;;;4980849;28;20037;-91
2021/11/04 11:41:23;;;;;;;33.40;16.80;;;;;;;;;;4981187;28;20368;-90
2021/11/04 11:44:05;;;;;;;33.25;17.48;;;;;;;;;;4998381;28;20080;-91
2021/11/04 11:46:31;;;;;;;36.33;17.03;;;;;;;;;;4996334;28;20037;-90
2021/11/04 11:49:12;;;;;;;36.95;17.92;;;;;;;;;;4980211;28;20347;-91
2021/11/04 11:51:41;;;;;;;34.83;17.23;;;;;;;;;;4981269;28;20030;-91
2021/11/04 11:54:07;;;;;;;30.35;16.30;;;;;;;;;;4980922;28;20085;-90
2021/11/04 11:56:34;;;;;;;31.58;16.65;;;;;;;;;;4982655;28;20394;-89
2021/11/04 11:59:18;;;;;;;33.45;18.08;;;;;;;;;;4980813;28;20041;-88
2021/11/04 12:01:51;;;;;;;33.60;17.90;;;;;;;;;;4985777;28;20482;-89
2021/11/04 12:04:26;;;;;;;34.17;15.75;;;;;;;;;;4984682;28;20101;-89
2021/11/04 12:06:53;;;;;;;34.88;19.10;;;;;;;;;;5000208;28;20034;-90
2021/11/04 12:09:32;;;;;;;34.65;19.02;;;;;;;;;;4999246;28;20022;-90
2021/11/04 12:11:57;;;;;;;31.70;17.42;;;;;;;;;;5001425;28;20375;-90
2021/11/04 12:14:24;;;;;;;29.73;15.00;;;;;;;;;;5016216;28;20057;-90
2021/11/04 12:17:02;;;;;;;30.83;15.75;;;;;;;;;;5019370;28;20086;-89
2021/11/04 12:19:51;;;;;;;29.30;14.27;;;;;;;;;;5006782;28;20033;-90
2021/11/04 12:22:37;;;;;;;33.78;16.08;;;;;;;;;;5000346;28;20030;-90
2021/11/04 12:25:04;;;;;;;38.38;17.58;;;;;;;;;;5001905;28;20029;-91
2021/11/04 12:27:40;;;;;;;27.30;15.23;;;;;;;;;;5004648;28;20026;-91
2021/11/04 12:30:16;;;;;;;28.92;14.57;;;;;;;;;;5003957;28;20030;-90
2021/11/04 12:32:43;;;;;;;29.95;16.50;;;;;;;;;;4999519;28;20104;-91
2021/11/04 12:35:09;;;;;;;25.40;15.93;;;;;;;;;;5005438;28;20035;-91
2021/11/04 12:37:35;;;;;;;27.10;15.73;;;;;;;;;;4999660;28;20034;-90
2021/11/04 12:40:03;;;;;;;25.40;14.50;;;;;;;;;;4998494;28;20037;-91
2021/11/04 12:42:29;;;;;;;31.77;15.35;;;;;;;;;;5000273;28;20117;-91
2021/11/04 12:44:54;;;;;;;24.33;14.80;;;;;;;;;;5000021;28;20058;-90
2021/11/04 12:47:22;;;;;;;27.25;15.85;;;;;;;;;;5002287;28;20076;-91
2021/11/04 12:49:48;;;;;;;27.70;14.75;;;;;;;;;;5013837;28;20026;-90
2021/11/04 12:52:14;;;;;;;27.83;14.52;;;;;;;;;;4999815;28;20397;-91
2021/11/04 12:54:45;;;;;;;24.25;13.93;;;;;;;;;;4999008;28;20042;-91
2021/11/04 12:57:12;;;;;;;34.78;16.75;;;;;;;;;;4994287;28;20027;-90
2021/11/04 12:59:44;;;;;;;27.13;14.80;;;;;;;;;;4978436;28;20117;-91
2021/11/04 13:02:15;;;;;;;25.88;14.48;;;;;;;;;;4979399;28;20030;-91
2021/11/04 13:04:47;;;;;;;23.15;13.43;;;;;;;;;;4999342;28;20034;-91
2021/11/04 13:07:21;;;;;;;29.93;15.67;;;;;;;;;;5000842;28;20050;-90
2021/11/04 13:09:53;;;;;;;25.90;16.75;;;;;;;;;;5000253;28;20306;-91
2021/11/04 13:12:25;;;;;;;27.40;15.10;;;;;;;;;;4999464;28;20536;-90
2021/11/04 13:14:54;;;;;;;25.05;13.70;;;;;;;;;;5000465;28;20113;-91
2021/11/04 13:17:27;;;;;;;32.05;14.73;;;;;;;;;;5000136;28;20101;-91
2021/11/04 13:20:13;;;;;;;20.55;12.60;;;;;;;;;;4985405;28;20035;-90
2021/11/04 13:22:45;;;;;;;27.27;14.65;;;;;;;;;;4979322;28;20042;-90
2021/11/04 13:25:14;;;;;;;24.50;13.52;;;;;;;;;;4981905;28;20050;-90
2021/11/04 13:27:40;;;;;;;24.50;14.23;;;;;;;;;;4979277;28;20063;-90
2021/11/04 13:30:06;;;;;;;25.23;15.25;;;;;;;;;;4977270;28;20050;-90
2021/11/04 13:32:34;;;;;;;27.52;14.48;;;;;;;;;;4978535;28;20058;-90
2021/11/04 13:35:01;;;;;;;28.65;15.05;;;;;;;;;;4981110;28;20030;-90
2021/11/04 13:37:28;;;;;;;22.55;13.88;;;;;;;;;;4963656;28;20146;-90
2021/11/04 13:39:55;;;;;;;22.20;13.80;;;;;;;;;;4980409;28;20070;-90
2021/11/04 13:42:25;;;;;;;24.88;14.35;;;;;;;;;;4981327;28;20029;-91
2021/11/04 13:45:11;;;;;;;23.08;13.60;;;;;;;;;;4978671;28;20027;-90
2021/11/04 13:47:40;;;;;;;20.85;11.43;;;;;;;;;;4979530;28;20482;-91
2021/11/04 13:50:07;;;;;;;24.95;12.68;;;;;;;;;;4980075;28;20031;-90
2021/11/04 13:52:35;;;;;;;23.85;11.95;;;;;;;;;;4982125;28;20103;-90
2021/11/04 13:55:05;;;;;;;27.90;13.68;;;;;;;;;;4996354;28;20033;-91
2021/11/04 13:57:47;;;;;;;21.27;13.00;;;;;;;;;;4998914;28;20492;-91
2021/11/04 14:00:24;;;;;;;23.05;12.77;;;;;;;;;;4999506;28;20022;-90
2021/11/04 14:02:55;;;;;;;22.48;13.05;;;;;;;;;;4998916;28;20026;-90
2021/11/04 14:05:20;;;;;;;22.60;12.30;;;;;;;;;;5002087;28;20449;-90
2021/11/04 14:07:50;;;;;;;30.17;14.25;;;;;;;;;;4999386;28;20027;-90
2021/11/04 14:10:16;;;;;;;23.25;12.90;;;;;;;;;;4997613;28;20136;-90
2021/11/04 14:12:47;;;;;;;20.67;12.68;;;;;;;;;;4980383;28;20027;-90
2021/11/04 14:15:20;;;;;;;22.80;12.77;;;;;;;;;;4979073;28;20022;-90